Time,TemperatureF,DewpointF,PressureIn,WindDirection,WindDirectionDegrees,WindSpeedMPH,WindSpeedGustMPH,Humidity,HourlyPrecipIn,Conditions,Clouds,dailyrainin,SoftwareType,DateUTC
2013-06-04 00:00:00,54.7,54.4,30.52,North,-999,0.0,1.6,99,0.00,,,0.00,pywws,2013-06-03 23:00:00,
2013-06-04 00:05:00,54.7,54.4,30.52,SE,135,2.2,4.5,99,0.00,,,0.00,pywws,2013-06-03 23:05:00,
2013-06-04 00:10:00,54.7,54.4,30.52,SE,135,1.6,3.1,99,0.00,,,0.00,pywws,2013-06-03 23:10:00,
2013-06-04 00:15:00,54.7,54.4,30.52,North,-999,0.0,0.7,99,0.00,,,0.00,pywws,2013-06-03 23:15:00,
2013-06-04 00:20:00,54.7,54.4,30.52,North,-999,0.0,1.6,99,0.00,,,0.00,pywws,2013-06-03 23:20:00,
2013-06-04 00:25:00,54.7,54.4,30.52,SE,135,0.7,2.2,99,0.00,,,0.00,pywws,2013-06-03 23:25:00,
2013-06-04 00:30:00,54.5,54.2,30.52,North,-999,0.0,0.7,99,0.00,,,0.00,pywws,2013-06-03 23:30:00,
2013-06-04 00:35:00,54.3,54.0,30.52,SE,135,0.7,2.2,99,0.00,,,0.00,pywws,2013-06-03 23:35:00,
2013-06-04 00:40:00,54.1,53.9,30.52,SE,135,0.7,2.2,99,0.00,,,0.00,pywws,2013-06-03 23:40:00,
2013-06-04 00:45:00,54.1,53.9,30.52,North,-999,0.0,0.7,99,0.00,,,0.00,pywws,2013-06-03 23:45:00,
2013-06-04 00:50:00,54.0,53.7,30.52,North,-999,0.0,1.6,99,0.00,,,0.00,pywws,2013-06-03 23:50:00,
2013-06-04 01:00:00,53.8,53.5,30.52,East,90,2.2,3.8,99,0.00,,,0.00,pywws,2013-06-04 00:00:00,
2013-06-04 01:05:00,53.4,53.1,30.52,SE,135,1.6,3.1,99,0.00,,,0.00,pywws,2013-06-04 00:05:00,
2013-06-04 01:10:00,53.2,53.0,30.52,North,-999,0.0,1.6,99,0.00,,,0.00,pywws,2013-06-04 00:10:00,
2013-06-04 01:15:00,53.1,52.8,30.52,SE,135,0.7,1.6,99,0.00,,,0.00,pywws,2013-06-04 00:15:00,
2013-06-04 01:20:00,52.9,52.6,30.52,SE,135,0.7,2.2,99,0.00,,,0.00,pywws,2013-06-04 00:20:00,
2013-06-04 01:25:00,52.7,52.4,30.52,SE,135,0.7,3.1,99,0.00,,,0.00,pywws,2013-06-04 00:25:00,
2013-06-04 01:30:00,52.5,52.2,30.53,North,-999,0.0,1.6,99,0.00,,,0.00,pywws,2013-06-04 00:30:00,
2013-06-04 01:35:00,52.3,52.1,30.53,North,-999,0.0,1.6,99,0.00,,,0.00,pywws,2013-06-04 00:35:00,
2013-06-04 01:40:00,52.3,52.1,30.52,East,90,0.7,2.2,99,0.00,,,0.00,pywws,2013-06-04 00:40:00,
2013-06-04 01:45:00,52.3,52.1,30.52,East,90,1.6,3.1,99,0.00,,,0.00,pywws,2013-06-04 00:45:00,
2013-06-04 01:50:00,52.2,51.9,30.51,East,90,0.7,2.2,99,0.00,,,0.00,pywws,2013-06-04 00:50:00,
2013-06-04 02:00:00,52.2,51.9,30.52,SE,135,1.6,3.1,99,0.00,,,0.00,pywws,2013-06-04 01:00:00,
2013-06-04 02:05:00,52.0,51.7,30.52,South,180,0.7,1.6,99,0.00,,,0.00,pywws,2013-06-04 01:05:00,
2013-06-04 02:10:00,51.8,51.5,30.52,East,90,0.7,2.2,99,0.00,,,0.00,pywws,2013-06-04 01:10:00,
2013-06-04 02:15:00,51.8,51.5,30.52,SE,135,0.7,1.6,99,0.00,,,0.00,pywws,2013-06-04 01:15:00,
2013-06-04 02:20:00,51.6,51.3,30.52,NE,45,1.6,2.2,99,0.00,,,0.00,pywws,2013-06-04 01:20:00,
2013-06-04 02:25:00,51.8,51.5,30.52,SE,135,1.6,3.1,99,0.00,,,0.00,pywws,2013-06-04 01:25:00,
2013-06-04 02:30:00,51.8,51.5,30.52,SE,135,0.7,1.6,99,0.00,,,0.00,pywws,2013-06-04 01:30:00,
2013-06-04 02:35:00,51.8,51.5,30.52,North,-999,0.0,1.6,99,0.00,,,0.00,pywws,2013-06-04 01:35:00,
2013-06-04 02:40:00,51.8,51.5,30.52,North,-999,0.0,1.6,99,0.00,,,0.00,pywws,2013-06-04 01:40:00,
2013-06-04 02:45:00,52.0,51.7,30.52,North,-999,0.0,2.2,99,0.00,,,0.00,pywws,2013-06-04 01:45:00,
2013-06-04 02:50:00,52.0,51.7,30.52,NE,45,0.7,3.1,99,0.00,,,0.00,pywws,2013-06-04 01:50:00,
2013-06-04 03:00:00,52.2,51.9,30.52,SE,135,0.7,2.2,99,0.00,,,0.00,pywws,2013-06-04 02:00:00,
2013-06-04 03:05:00,52.2,51.9,30.52,SE,135,1.6,3.1,99,0.00,,,0.00,pywws,2013-06-04 02:05:00,
2013-06-04 03:10:00,52.2,51.9,30.52,SE,135,0.7,2.2,99,0.00,,,0.00,pywws,2013-06-04 02:10:00,
2013-06-04 03:15:00,52.2,51.9,30.52,East,90,1.6,3.1,99,0.00,,,0.00,pywws,2013-06-04 02:15:00,
2013-06-04 03:20:00,52.2,51.9,30.52,North,-999,0.0,1.6,99,0.00,,,0.00,pywws,2013-06-04 02:20:00,
2013-06-04 03:25:00,52.0,51.7,30.53,SE,135,0.7,3.1,99,0.00,,,0.00,pywws,2013-06-04 02:25:00,
2013-06-04 03:30:00,52.0,51.7,30.53,East,90,1.6,3.1,99,0.00,,,0.00,pywws,2013-06-04 02:30:00,
2013-06-04 03:35:00,51.8,51.5,30.52,SE,135,0.7,2.2,99,0.00,,,0.00,pywws,2013-06-04 02:35:00,
2013-06-04 03:40:00,51.6,51.3,30.52,North,-999,0.0,2.2,99,0.00,,,0.00,pywws,2013-06-04 02:40:00,
2013-06-04 03:45:00,51.6,51.3,30.52,East,90,1.6,2.2,99,0.00,,,0.00,pywws,2013-06-04 02:45:00,
2013-06-04 03:50:00,51.4,51.2,30.52,SE,135,0.7,1.6,99,0.00,,,0.00,pywws,2013-06-04 02:50:00,
2013-06-04 04:00:00,51.1,50.8,30.52,East,90,0.7,2.2,99,0.00,,,0.00,pywws,2013-06-04 03:00:00,
2013-06-04 04:05:00,50.9,50.6,30.52,North,-999,0.0,1.6,99,0.00,,,0.00,pywws,2013-06-04 03:05:00,
2013-06-04 04:10:00,50.7,50.4,30.52,North,-999,0.0,0.7,99,0.00,,,0.00,pywws,2013-06-04 03:10:00,
2013-06-04 04:15:00,50.5,50.3,30.53,North,-999,0.0,1.6,99,0.00,,,0.00,pywws,2013-06-04 03:15:00,
2013-06-04 04:20:00,50.5,50.3,30.52,North,-999,0.0,1.6,99,0.00,,,0.00,pywws,2013-06-04 03:20:00,
2013-06-04 04:25:00,50.5,50.3,30.52,North,-999,0.0,0.7,99,0.00,,,0.00,pywws,2013-06-04 03:25:00,
2013-06-04 04:30:00,50.5,50.3,30.52,North,-999,0.0,0.7,99,0.00,,,0.00,pywws,2013-06-04 03:30:00,
2013-06-04 04:35:00,50.4,50.1,30.52,North,-999,0.0,1.6,99,0.00,,,0.00,pywws,2013-06-04 03:35:00,
2013-06-04 04:40:00,50.4,50.1,30.52,North,-999,0.0,1.6,99,0.00,,,0.00,pywws,2013-06-04 03:40:00,
2013-06-04 04:45:00,50.5,50.3,30.52,North,-999,0.0,1.6,99,0.00,,,0.00,pywws,2013-06-04 03:45:00,
2013-06-04 04:50:00,50.5,50.3,30.52,North,-999,0.0,0.7,99,0.00,,,0.00,pywws,2013-06-04 03:50:00,
2013-06-04 05:00:00,50.5,50.3,30.52,North,-999,0.0,0.7,99,0.00,,,0.00,pywws,2013-06-04 04:00:00,
2013-06-04 05:05:00,50.5,50.3,30.52,North,-999,0.0,1.6,99,0.00,,,0.00,pywws,2013-06-04 04:05:00,
2013-06-04 05:10:00,50.5,50.3,30.52,North,-999,0.0,1.6,99,0.00,,,0.00,pywws,2013-06-04 04:10:00,
2013-06-04 05:15:00,50.7,50.4,30.52,North,-999,0.0,0.0,99,0.00,,,0.00,pywws,2013-06-04 04:15:00,
2013-06-04 05:20:00,50.5,50.3,30.52,North,-999,0.0,0.0,99,0.00,,,0.00,pywws,2013-06-04 04:20:00,
2013-06-04 05:25:00,50.4,50.1,30.52,North,-999,0.0,0.7,99,0.00,,,0.00,pywws,2013-06-04 04:25:00,
2013-06-04 05:30:00,50.7,50.4,30.52,North,-999,0.0,0.0,99,0.00,,,0.00,pywws,2013-06-04 04:30:00,
2013-06-04 05:35:00,50.7,50.4,30.52,North,-999,0.0,0.0,99,0.00,,,0.00,pywws,2013-06-04 04:35:00,
2013-06-04 05:40:00,50.9,50.6,30.52,North,-999,0.0,0.0,99,0.00,,,0.00,pywws,2013-06-04 04:40:00,
2013-06-04 05:45:00,51.1,50.8,30.52,North,-999,0.0,0.0,99,0.00,,,0.00,pywws,2013-06-04 04:45:00,
2013-06-04 05:50:00,51.1,50.8,30.52,North,-999,0.0,0.0,99,0.00,,,0.00,pywws,2013-06-04 04:50:00,
2013-06-04 06:00:00,51.3,51.0,30.52,North,-999,0.0,0.7,99,0.00,,,0.00,pywws,2013-06-04 05:00:00,
2013-06-04 06:05:00,51.6,51.3,30.52,North,-999,0.0,0.0,99,0.00,,,0.00,pywws,2013-06-04 05:05:00,
2013-06-04 06:10:00,51.8,51.5,30.52,North,-999,0.0,0.0,99,0.00,,,0.00,pywws,2013-06-04 05:10:00,
2013-06-04 06:15:00,52.2,51.9,30.52,North,-999,0.0,0.0,99,0.00,,,0.00,pywws,2013-06-04 05:15:00,
2013-06-04 06:20:00,52.3,52.1,30.52,North,-999,0.0,0.0,99,0.00,,,0.00,pywws,2013-06-04 05:20:00,
2013-06-04 06:25:00,52.5,52.2,30.52,North,-999,0.0,0.0,99,0.00,,,0.00,pywws,2013-06-04 05:25:00,
2013-06-04 06:30:00,52.5,52.2,30.52,North,-999,0.0,0.0,99,0.00,,,0.00,pywws,2013-06-04 05:30:00,
2013-06-04 06:35:00,52.3,52.1,30.52,North,-999,0.0,1.6,99,0.00,,,0.00,pywws,2013-06-04 05:35:00,
2013-06-04 06:40:00,52.7,52.4,30.52,North,-999,0.0,0.7,99,0.00,,,0.00,pywws,2013-06-04 05:40:00,
2013-06-04 06:45:00,52.9,52.6,30.52,SE,135,0.7,1.6,99,0.00,,,0.00,pywws,2013-06-04 05:45:00,
2013-06-04 06:50:00,52.7,52.4,30.52,North,-999,0.0,0.0,99,0.00,,,0.00,pywws,2013-06-04 05:50:00,
2013-06-04 07:00:00,55.4,55.1,30.52,North,-999,0.0,0.7,99,0.00,,,0.00,pywws,2013-06-04 06:00:00,
2013-06-04 07:05:00,57.6,57.3,30.52,North,-999,0.0,1.6,99,0.00,,,0.00,pywws,2013-06-04 06:05:00,
2013-06-04 07:10:00,58.3,57.1,30.52,NE,45,0.7,2.2,96,0.00,,,0.00,pywws,2013-06-04 06:10:00,
2013-06-04 07:15:00,59.4,56.4,30.52,NE,45,0.7,1.6,90,0.00,,,0.00,pywws,2013-06-04 06:15:00,
2013-06-04 07:20:00,59.7,55.5,30.52,NE,45,0.7,2.2,86,0.00,,,0.00,pywws,2013-06-04 06:20:00,
2013-06-04 07:25:00,59.7,54.9,30.53,SE,135,1.6,3.8,84,0.00,,,0.00,pywws,2013-06-04 06:25:00,
2013-06-04 07:30:00,58.8,54.3,30.53,NE,45,0.7,3.1,85,0.00,,,0.00,pywws,2013-06-04 06:30:00,
2013-06-04 07:35:00,59.2,54.7,30.53,North,-999,0.0,1.6,85,0.00,,,0.00,pywws,2013-06-04 06:35:00,
2013-06-04 07:40:00,59.2,54.7,30.53,SE,135,1.6,3.1,85,0.00,,,0.00,pywws,2013-06-04 06:40:00,
2013-06-04 07:45:00,58.3,54.1,30.53,SE,135,1.6,3.1,86,0.00,,,0.00,pywws,2013-06-04 06:45:00,
2013-06-04 07:50:00,57.7,54.5,30.52,SE,135,0.7,2.2,89,0.00,,,0.00,pywws,2013-06-04 06:50:00,
2013-06-04 08:00:00,59.2,56.2,30.53,South,180,1.6,3.1,90,0.00,,,0.00,pywws,2013-06-04 07:00:00,
2013-06-04 08:05:00,60.1,55.2,30.53,East,90,0.7,1.6,84,0.00,,,0.00,pywws,2013-06-04 07:05:00,
2013-06-04 08:10:00,60.6,54.8,30.53,West,270,2.2,4.5,81,0.00,,,0.00,pywws,2013-06-04 07:10:00,
2013-06-04 08:15:00,61.0,54.8,30.52,South,180,1.6,3.8,80,0.00,,,0.00,pywws,2013-06-04 07:15:00,
2013-06-04 08:20:00,61.0,54.4,30.52,East,90,1.6,3.8,79,0.00,,,0.00,pywws,2013-06-04 07:20:00,
2013-06-04 08:25:00,61.3,54.8,30.53,SW,225,0.7,3.8,79,0.00,,,0.00,pywws,2013-06-04 07:25:00,
2013-06-04 08:30:00,62.1,55.1,30.53,South,180,0.7,3.1,78,0.00,,,0.00,pywws,2013-06-04 07:30:00,
2013-06-04 08:35:00,63.0,55.6,30.53,SSW,202,1.6,3.1,77,0.00,,,0.00,pywws,2013-06-04 07:35:00,
2013-06-04 08:40:00,62.2,54.2,30.52,SW,225,0.7,3.8,75,0.00,,,0.00,pywws,2013-06-04 07:40:00,
2013-06-04 08:45:00,63.1,55.8,30.52,East,90,0.7,3.1,77,0.00,,,0.00,pywws,2013-06-04 07:45:00,
2013-06-04 08:50:00,63.3,54.5,30.52,SE,135,0.7,3.1,73,0.00,,,0.00,pywws,2013-06-04 07:50:00,
2013-06-04 09:00:00,63.7,55.2,30.52,SW,225,0.7,1.6,74,0.00,,,0.00,pywws,2013-06-04 08:00:00,
2013-06-04 09:05:00,63.3,54.1,30.52,North,-999,0.0,2.2,72,0.00,,,0.00,pywws,2013-06-04 08:05:00,
2013-06-04 09:10:00,63.1,53.6,30.52,SSE,158,1.6,3.8,71,0.00,,,0.00,pywws,2013-06-04 08:10:00,
2013-06-04 09:15:00,62.4,53.3,30.52,East,90,1.6,3.1,72,0.00,,,0.00,pywws,2013-06-04 08:15:00,
2013-06-04 09:20:00,63.0,52.6,30.52,SE,135,2.2,6.0,69,0.00,,,0.00,pywws,2013-06-04 08:20:00,
2013-06-04 09:25:00,63.3,53.4,30.51,East,90,1.6,3.1,70,0.00,,,0.00,pywws,2013-06-04 08:25:00,
2013-06-04 09:30:00,63.1,52.8,30.51,East,90,2.2,5.4,69,0.00,,,0.00,pywws,2013-06-04 08:30:00,
2013-06-04 09:35:00,63.0,53.8,30.51,East,90,2.2,3.8,72,0.00,,,0.00,pywws,2013-06-04 08:35:00,
2013-06-04 09:40:00,64.4,55.2,30.51,North,-999,0.0,2.2,72,0.00,,,0.00,pywws,2013-06-04 08:40:00,
2013-06-04 09:45:00,64.9,53.7,30.51,SW,225,0.7,2.2,67,0.00,,,0.00,pywws,2013-06-04 08:45:00,
2013-06-04 09:50:00,64.6,53.0,30.51,SE,135,2.2,4.5,66,0.00,,,0.00,pywws,2013-06-04 08:50:00,
2013-06-04 10:00:00,64.9,53.3,30.51,SE,135,2.2,3.8,66,0.00,,,0.00,pywws,2013-06-04 09:00:00,
2013-06-04 10:05:00,66.4,53.4,30.50,SSW,202,2.2,4.5,63,0.00,,,0.00,pywws,2013-06-04 09:05:00,
2013-06-04 10:10:00,66.0,53.9,30.50,SW,225,0.7,3.1,65,0.00,,,0.00,pywws,2013-06-04 09:10:00,
2013-06-04 10:15:00,66.2,52.8,30.50,SE,135,1.6,3.1,62,0.00,,,0.00,pywws,2013-06-04 09:15:00,
2013-06-04 10:20:00,65.5,52.5,30.50,SE,135,2.2,4.5,63,0.00,,,0.00,pywws,2013-06-04 09:20:00,
2013-06-04 10:25:00,66.2,52.3,30.50,East,90,3.1,5.4,61,0.00,,,0.00,pywws,2013-06-04 09:25:00,
2013-06-04 10:30:00,66.6,52.7,30.50,SE,135,2.2,3.8,61,0.00,,,0.00,pywws,2013-06-04 09:30:00,
2013-06-04 10:35:00,64.8,51.0,30.49,East,90,3.1,4.5,61,0.00,,,0.00,pywws,2013-06-04 09:35:00,
2013-06-04 10:40:00,65.3,52.8,30.50,East,90,0.7,3.1,64,0.00,,,0.00,pywws,2013-06-04 09:40:00,
2013-06-04 10:45:00,66.9,52.6,30.49,East,90,1.6,3.1,60,0.00,,,0.00,pywws,2013-06-04 09:45:00,
2013-06-04 10:50:00,67.5,51.7,30.49,SW,225,2.2,5.4,57,0.00,,,0.00,pywws,2013-06-04 09:50:00,
2013-06-04 11:00:00,68.4,52.5,30.49,SE,135,0.7,5.4,57,0.00,,,0.00,pywws,2013-06-04 10:00:00,
2013-06-04 11:05:00,64.8,51.0,30.49,East,90,1.6,4.5,61,0.00,,,0.00,pywws,2013-06-04 10:05:00,
2013-06-04 11:10:00,64.8,51.9,30.49,East,90,1.6,3.1,63,0.00,,,0.00,pywws,2013-06-04 10:10:00,
2013-06-04 11:15:00,65.8,51.6,30.48,South,180,0.7,3.1,60,0.00,,,0.00,pywws,2013-06-04 10:15:00,
2013-06-04 11:20:00,66.6,52.2,30.48,East,90,1.6,3.1,60,0.00,,,0.00,pywws,2013-06-04 10:20:00,
2013-06-04 11:25:00,65.7,50.9,30.48,South,180,3.8,6.0,59,0.00,,,0.00,pywws,2013-06-04 10:25:00,
2013-06-04 11:30:00,65.5,52.1,30.48,NW,315,0.7,4.5,62,0.00,,,0.00,pywws,2013-06-04 10:30:00,
2013-06-04 11:35:00,64.9,51.6,30.48,SE,135,1.6,4.5,62,0.00,,,0.00,pywws,2013-06-04 10:35:00,
2013-06-04 11:40:00,64.4,51.5,30.48,SE,135,3.1,5.4,63,0.00,,,0.00,pywws,2013-06-04 10:40:00,
2013-06-04 11:45:00,64.2,51.8,30.48,SE,135,3.1,5.4,64,0.00,,,0.00,pywws,2013-06-04 10:45:00,
2013-06-04 11:50:00,65.8,52.0,30.47,SE,135,3.1,5.4,61,0.00,,,0.00,pywws,2013-06-04 10:50:00,
2013-06-04 12:00:00,65.1,50.9,30.47,East,90,3.1,5.4,60,0.00,,,0.00,pywws,2013-06-04 11:00:00,
2013-06-04 12:05:00,65.8,51.6,30.47,SSE,158,3.1,6.9,60,0.00,,,0.00,pywws,2013-06-04 11:05:00,
2013-06-04 12:10:00,65.1,51.3,30.47,SSE,158,3.1,6.0,61,0.00,,,0.00,pywws,2013-06-04 11:10:00,
2013-06-04 12:15:00,64.9,51.2,30.46,SE,135,0.7,3.8,61,0.00,,,0.00,pywws,2013-06-04 11:15:00,
2013-06-04 12:20:00,65.8,51.1,30.46,West,270,1.6,5.4,59,0.00,,,0.00,pywws,2013-06-04 11:20:00,
2013-06-04 12:25:00,65.8,51.6,30.46,SE,135,2.2,5.4,60,0.00,,,0.00,pywws,2013-06-04 11:25:00,
2013-06-04 12:30:00,65.8,51.6,30.45,South,180,3.8,6.9,60,0.00,,,0.00,pywws,2013-06-04 11:30:00,
2013-06-04 12:35:00,66.9,52.1,30.45,North,0,2.2,6.0,59,0.00,,,0.00,pywws,2013-06-04 11:35:00,
2013-06-04 12:40:00,66.6,51.3,30.45,SE,135,3.1,5.4,58,0.00,,,0.00,pywws,2013-06-04 11:40:00,
2013-06-04 12:45:00,67.1,52.3,30.45,SW,225,1.6,3.8,59,0.00,,,0.00,pywws,2013-06-04 11:45:00,
2013-06-04 12:50:00,67.5,52.6,30.45,SSE,158,1.6,5.4,59,0.00,,,0.00,pywws,2013-06-04 11:50:00,
2013-06-04 13:00:00,68.4,53.0,30.45,East,90,1.6,4.5,58,0.00,,,0.00,pywws,2013-06-04 12:00:00,
2013-06-04 13:05:00,66.4,52.1,30.45,East,90,2.2,6.9,60,0.00,,,0.00,pywws,2013-06-04 12:05:00,
2013-06-04 13:10:00,66.2,52.3,30.45,ESE,112,2.2,6.9,61,0.00,,,0.00,pywws,2013-06-04 12:10:00,
2013-06-04 13:15:00,66.9,53.0,30.45,NE,45,1.6,6.0,61,0.00,,,0.00,pywws,2013-06-04 12:15:00,
2013-06-04 13:20:00,66.7,51.5,30.45,ESE,112,5.4,9.2,58,0.00,,,0.00,pywws,2013-06-04 12:20:00,
2013-06-04 13:25:00,65.7,51.8,30.45,NW,315,2.2,4.5,61,0.00,,,0.00,pywws,2013-06-04 12:25:00,
2013-06-04 13:30:00,66.9,53.0,30.44,NW,315,2.2,8.3,61,0.00,,,0.00,pywws,2013-06-04 12:30:00,
2013-06-04 13:35:00,67.3,52.9,30.44,NE,45,2.2,4.5,60,0.00,,,0.00,pywws,2013-06-04 12:35:00,
2013-06-04 13:40:00,67.1,52.3,30.44,NE,45,3.1,6.9,59,0.00,,,0.00,pywws,2013-06-04 12:40:00,
2013-06-04 13:45:00,66.9,53.0,30.44,NW,315,2.2,4.5,61,0.00,,,0.00,pywws,2013-06-04 12:45:00,
2013-06-04 13:50:00,66.7,51.9,30.44,NE,45,3.1,6.0,59,0.00,,,0.00,pywws,2013-06-04 12:50:00,
2013-06-04 14:00:00,67.1,52.7,30.43,East,90,3.1,6.9,60,0.00,,,0.00,pywws,2013-06-04 13:00:00,
2013-06-04 14:05:00,68.2,53.3,30.43,South,180,1.6,6.0,59,0.00,,,0.00,pywws,2013-06-04 13:05:00,
2013-06-04 14:10:00,68.0,53.6,30.43,East,90,3.8,8.3,60,0.00,,,0.00,pywws,2013-06-04 13:10:00,
2013-06-04 14:15:00,67.1,52.7,30.43,SSE,158,4.5,6.9,60,0.00,,,0.00,pywws,2013-06-04 13:15:00,
2013-06-04 14:20:00,66.7,53.3,30.43,East,90,2.2,7.6,62,0.00,,,0.00,pywws,2013-06-04 13:20:00,
2013-06-04 14:25:00,66.9,52.6,30.43,East,90,3.1,6.0,60,0.00,,,0.00,pywws,2013-06-04 13:25:00,
2013-06-04 14:30:00,67.1,53.2,30.43,East,90,2.2,6.0,61,0.00,,,0.00,pywws,2013-06-04 13:30:00,
2013-06-04 14:35:00,68.0,53.1,30.43,South,180,3.1,6.9,59,0.00,,,0.00,pywws,2013-06-04 13:35:00,
2013-06-04 14:40:00,67.1,52.7,30.43,SE,135,3.1,6.0,60,0.00,,,0.00,pywws,2013-06-04 13:40:00,
2013-06-04 14:45:00,66.7,52.9,30.43,SW,225,4.5,7.6,61,0.00,,,0.00,pywws,2013-06-04 13:45:00,
2013-06-04 14:50:00,66.7,52.9,30.43,SE,135,3.1,9.2,61,0.00,,,0.00,pywws,2013-06-04 13:50:00,
2013-06-04 15:00:00,66.2,53.2,30.43,East,90,3.8,6.0,63,0.00,,,0.00,pywws,2013-06-04 14:00:00,
2013-06-04 15:05:00,67.6,53.7,30.43,East,90,2.2,6.0,61,0.00,,,0.00,pywws,2013-06-04 14:05:00,
2013-06-04 15:10:00,68.4,53.5,30.43,East,90,3.1,5.4,59,0.00,,,0.00,pywws,2013-06-04 14:10:00,
2013-06-04 15:15:00,69.1,54.1,30.43,SE,135,1.6,3.1,59,0.00,,,0.00,pywws,2013-06-04 14:15:00,
2013-06-04 15:20:00,69.1,54.1,30.42,SE,135,0.7,3.8,59,0.00,,,0.00,pywws,2013-06-04 14:20:00,
2013-06-04 15:25:00,68.7,53.8,30.42,South,180,1.6,6.0,59,0.00,,,0.00,pywws,2013-06-04 14:25:00,
2013-06-04 15:30:00,69.6,54.6,30.42,East,90,1.6,3.8,59,0.00,,,0.00,pywws,2013-06-04 14:30:00,
2013-06-04 15:35:00,68.5,54.1,30.43,East,90,3.1,4.5,60,0.00,,,0.00,pywws,2013-06-04 14:35:00,
2013-06-04 15:40:00,68.7,54.3,30.42,NW,315,2.2,5.4,60,0.00,,,0.00,pywws,2013-06-04 14:40:00,
2013-06-04 15:45:00,68.0,53.1,30.42,SE,135,3.1,5.4,59,0.00,,,0.00,pywws,2013-06-04 14:45:00,
2013-06-04 15:50:00,68.0,53.6,30.42,NE,45,4.5,8.3,60,0.00,,,0.00,pywws,2013-06-04 14:50:00,
2013-06-04 16:00:00,68.0,53.1,30.42,SE,135,3.1,6.0,59,0.00,,,0.00,pywws,2013-06-04 15:00:00,
2013-06-04 16:05:00,67.1,53.2,30.42,East,90,3.1,6.9,61,0.00,,,0.00,pywws,2013-06-04 15:05:00,
2013-06-04 16:10:00,66.6,53.1,30.42,SSE,158,3.1,6.0,62,0.00,,,0.00,pywws,2013-06-04 15:10:00,
2013-06-04 16:15:00,66.6,53.1,30.41,South,180,3.1,6.0,62,0.00,,,0.00,pywws,2013-06-04 15:15:00,
2013-06-04 16:20:00,67.3,53.4,30.42,SE,135,2.2,3.8,61,0.00,,,0.00,pywws,2013-06-04 15:20:00,
2013-06-04 16:25:00,67.3,52.9,30.41,SE,135,2.2,6.0,60,0.00,,,0.00,pywws,2013-06-04 15:25:00,
2013-06-04 16:30:00,67.5,53.1,30.41,East,90,1.6,3.8,60,0.00,,,0.00,pywws,2013-06-04 15:30:00,
2013-06-04 16:35:00,67.3,52.5,30.41,SE,135,3.1,6.0,59,0.00,,,0.00,pywws,2013-06-04 15:35:00,
2013-06-04 16:40:00,66.6,52.2,30.41,SE,135,1.6,3.1,60,0.00,,,0.00,pywws,2013-06-04 15:40:00,
2013-06-04 16:45:00,65.7,51.8,30.40,SE,135,3.1,6.0,61,0.00,,,0.00,pywws,2013-06-04 15:45:00,
2013-06-04 16:50:00,65.5,52.1,30.40,NE,45,1.6,4.5,62,0.00,,,0.00,pywws,2013-06-04 15:50:00,
2013-06-04 17:00:00,65.3,51.9,30.40,SE,135,1.6,3.1,62,0.00,,,0.00,pywws,2013-06-04 16:00:00,
2013-06-04 17:05:00,65.1,52.2,30.40,NE,45,1.6,5.4,63,0.00,,,0.00,pywws,2013-06-04 16:05:00,
2013-06-04 17:10:00,64.8,52.3,30.40,SE,135,3.1,6.0,64,0.00,,,0.00,pywws,2013-06-04 16:10:00,
2013-06-04 17:15:00,64.6,52.1,30.40,NE,45,2.2,5.4,64,0.00,,,0.00,pywws,2013-06-04 16:15:00,
2013-06-04 17:20:00,64.2,51.8,30.39,East,90,2.2,6.9,64,0.00,,,0.00,pywws,2013-06-04 16:20:00,
2013-06-04 17:25:00,63.9,52.3,30.39,SE,135,2.2,4.5,66,0.00,,,0.00,pywws,2013-06-04 16:25:00,
2013-06-04 17:30:00,63.9,52.3,30.39,East,90,1.6,5.4,66,0.00,,,0.00,pywws,2013-06-04 16:30:00,
2013-06-04 17:35:00,63.5,52.3,30.39,NW,315,0.7,3.1,67,0.00,,,0.00,pywws,2013-06-04 16:35:00,
2013-06-04 17:40:00,63.7,52.1,30.38,SE,135,3.1,7.6,66,0.00,,,0.00,pywws,2013-06-04 16:40:00,
2013-06-04 17:45:00,63.9,51.9,30.38,West,270,1.6,3.1,65,0.00,,,0.00,pywws,2013-06-04 16:45:00,
2013-06-04 17:50:00,64.0,52.4,30.38,South,180,2.2,3.8,66,0.00,,,0.00,pywws,2013-06-04 16:50:00,
2013-06-04 18:00:00,63.7,52.5,30.38,South,180,2.2,3.8,67,0.00,,,0.00,pywws,2013-06-04 17:00:00,
2013-06-04 18:05:00,63.5,51.9,30.37,ESE,112,1.6,3.8,66,0.00,,,0.00,pywws,2013-06-04 17:05:00,
2013-06-04 18:10:00,63.5,51.9,30.37,South,180,2.2,3.8,66,0.00,,,0.00,pywws,2013-06-04 17:10:00,
2013-06-04 18:15:00,63.7,51.7,30.37,SW,225,2.2,7.6,65,0.00,,,0.00,pywws,2013-06-04 17:15:00,
2013-06-04 18:20:00,63.9,51.4,30.38,South,180,3.8,6.9,64,0.00,,,0.00,pywws,2013-06-04 17:20:00,
2013-06-04 18:25:00,64.0,52.0,30.37,South,180,3.8,7.6,65,0.00,,,0.00,pywws,2013-06-04 17:25:00,
2013-06-04 18:30:00,64.6,51.7,30.37,East,90,0.7,3.1,63,0.00,,,0.00,pywws,2013-06-04 17:30:00,
2013-06-04 18:35:00,63.9,51.0,30.37,East,90,2.2,5.4,63,0.00,,,0.00,pywws,2013-06-04 17:35:00,
2013-06-04 18:40:00,63.7,51.7,30.37,NE,45,2.2,5.4,65,0.00,,,0.00,pywws,2013-06-04 17:40:00,
2013-06-04 18:45:00,63.7,51.7,30.37,North,0,3.1,6.0,65,0.00,,,0.00,pywws,2013-06-04 17:45:00,
2013-06-04 18:50:00,63.5,51.5,30.37,ENE,68,1.6,3.8,65,0.00,,,0.00,pywws,2013-06-04 17:50:00,
2013-06-04 19:00:00,63.5,51.5,30.37,SE,135,2.2,3.8,65,0.00,,,0.00,pywws,2013-06-04 18:00:00,
2013-06-04 19:05:00,63.5,51.1,30.37,West,270,1.6,4.5,64,0.00,,,0.00,pywws,2013-06-04 18:05:00,
2013-06-04 19:10:00,63.5,51.5,30.37,NE,45,1.6,3.1,65,0.00,,,0.00,pywws,2013-06-04 18:10:00,
2013-06-04 19:15:00,63.1,52.4,30.37,East,90,1.6,3.1,68,0.00,,,0.00,pywws,2013-06-04 18:15:00,
2013-06-04 19:20:00,62.4,52.5,30.37,South,180,3.1,4.5,70,0.00,,,0.00,pywws,2013-06-04 18:20:00,
2013-06-04 19:25:00,61.7,53.0,30.37,South,180,2.2,5.4,73,0.00,,,0.00,pywws,2013-06-04 18:25:00,
2013-06-04 19:30:00,61.2,53.2,30.37,West,270,0.7,3.1,75,0.00,,,0.00,pywws,2013-06-04 18:30:00,
2013-06-04 19:35:00,61.2,53.2,30.37,SE,135,1.6,3.8,75,0.00,,,0.00,pywws,2013-06-04 18:35:00,
2013-06-04 19:40:00,61.5,53.2,30.37,West,270,0.7,3.1,74,0.00,,,0.00,pywws,2013-06-04 18:40:00,
2013-06-04 19:45:00,61.9,53.1,30.37,SW,225,1.6,2.2,73,0.00,,,0.00,pywws,2013-06-04 18:45:00,
2013-06-04 19:50:00,61.7,53.3,30.36,SE,135,1.6,3.8,74,0.00,,,0.00,pywws,2013-06-04 18:50:00,
2013-06-04 20:00:00,61.5,53.2,30.36,East,90,1.6,3.1,74,0.00,,,0.00,pywws,2013-06-04 19:00:00,
2013-06-04 20:05:00,61.0,53.4,30.36,East,90,1.6,3.8,76,0.00,,,0.00,pywws,2013-06-04 19:05:00,
2013-06-04 20:10:00,60.6,53.0,30.36,North,-999,0.0,2.2,76,0.00,,,0.00,pywws,2013-06-04 19:10:00,
2013-06-04 20:15:00,60.1,52.8,30.36,SE,135,2.2,3.8,77,0.00,,,0.00,pywws,2013-06-04 19:15:00,
2013-06-04 20:20:00,59.7,52.8,30.36,NE,45,2.2,5.4,78,0.00,,,0.00,pywws,2013-06-04 19:20:00,
2013-06-04 20:25:00,59.5,53.0,30.36,SE,135,1.6,4.5,79,0.00,,,0.00,pywws,2013-06-04 19:25:00,
2013-06-04 20:30:00,59.5,53.0,30.36,South,180,0.7,2.2,79,0.00,,,0.00,pywws,2013-06-04 19:30:00,
2013-06-04 20:35:00,59.5,52.7,30.36,East,90,1.6,3.8,78,0.00,,,0.00,pywws,2013-06-04 19:35:00,
2013-06-04 20:40:00,59.5,53.0,30.36,East,90,0.7,2.2,79,0.00,,,0.00,pywws,2013-06-04 19:40:00,
2013-06-04 20:45:00,59.4,52.8,30.37,East,90,1.6,3.8,79,0.00,,,0.00,pywws,2013-06-04 19:45:00,
2013-06-04 20:50:00,59.0,52.8,30.36,East,90,1.6,3.8,80,0.00,,,0.00,pywws,2013-06-04 19:50:00,
2013-06-04 21:00:00,58.5,52.6,30.36,South,180,2.2,3.8,81,0.00,,,0.00,pywws,2013-06-04 20:00:00,
2013-06-04 21:05:00,57.7,52.6,30.36,East,90,0.7,2.2,83,0.00,,,0.00,pywws,2013-06-04 20:05:00,
2013-06-04 21:10:00,57.6,52.8,30.36,East,90,0.7,2.2,84,0.00,,,0.00,pywws,2013-06-04 20:10:00,
2013-06-04 21:15:00,57.4,52.9,30.36,SE,135,0.7,3.1,85,0.00,,,0.00,pywws,2013-06-04 20:15:00,
2013-06-04 21:20:00,57.0,52.9,30.36,North,-999,0.0,1.6,86,0.00,,,0.00,pywws,2013-06-04 20:20:00,
2013-06-04 21:25:00,56.8,52.7,30.36,SE,135,0.7,1.6,86,0.00,,,0.00,pywws,2013-06-04 20:25:00,
2013-06-04 21:30:00,56.7,52.8,30.36,SE,135,1.6,3.1,87,0.00,,,0.00,pywws,2013-06-04 20:30:00,
2013-06-04 21:35:00,56.5,52.7,30.36,North,-999,0.0,0.7,87,0.00,,,0.00,pywws,2013-06-04 20:35:00,
2013-06-04 21:40:00,56.5,52.7,30.36,North,-999,0.0,1.6,87,0.00,,,0.00,pywws,2013-06-04 20:40:00,
2013-06-04 21:45:00,56.5,53.0,30.36,SE,135,0.7,1.6,88,0.00,,,0.00,pywws,2013-06-04 20:45:00,
2013-06-04 21:50:00,56.3,52.8,30.36,SE,135,1.6,3.8,88,0.00,,,0.00,pywws,2013-06-04 20:50:00,
2013-06-04 22:00:00,56.1,52.6,30.36,South,180,0.7,3.1,88,0.00,,,0.00,pywws,2013-06-04 21:00:00,
2013-06-04 22:05:00,55.6,52.4,30.36,East,90,0.7,1.6,89,0.00,,,0.00,pywws,2013-06-04 21:05:00,
2013-06-04 22:10:00,55.6,52.7,30.36,SE,135,0.7,2.2,90,0.00,,,0.00,pywws,2013-06-04 21:10:00,
2013-06-04 22:15:00,55.2,52.3,30.36,North,-999,0.0,2.2,90,0.00,,,0.00,pywws,2013-06-04 21:15:00,
2013-06-04 22:20:00,55.0,52.2,30.36,North,-999,0.0,0.0,90,0.00,,,0.00,pywws,2013-06-04 21:20:00,
2013-06-04 22:25:00,54.7,51.8,30.36,North,-999,0.0,0.0,90,0.00,,,0.00,pywws,2013-06-04 21:25:00,
2013-06-04 22:30:00,54.3,51.4,30.36,North,-999,0.0,0.0,90,0.00,,,0.00,pywws,2013-06-04 21:30:00,
2013-06-04 22:35:00,53.8,51.2,30.36,North,-999,0.0,0.0,91,0.00,,,0.00,pywws,2013-06-04 21:35:00,
2013-06-04 22:40:00,53.8,52.1,30.35,SE,135,0.7,1.6,94,0.00,,,0.00,pywws,2013-06-04 21:40:00,
2013-06-04 22:45:00,54.0,52.3,30.36,East,90,0.7,1.6,94,0.00,,,0.00,pywws,2013-06-04 21:45:00,
2013-06-04 22:50:00,54.1,52.7,30.35,North,-999,0.0,1.6,95,0.00,,,0.00,pywws,2013-06-04 21:50:00,
2013-06-04 23:00:00,53.6,51.9,30.35,North,-999,0.0,0.7,94,0.00,,,0.00,pywws,2013-06-04 22:00:00,
2013-06-04 23:05:00,52.3,50.4,30.35,North,-999,0.0,0.0,93,0.00,,,0.00,pywws,2013-06-04 22:05:00,
2013-06-04 23:10:00,52.2,50.8,30.34,North,-999,0.0,0.7,95,0.00,,,0.00,pywws,2013-06-04 22:10:00,
2013-06-04 23:15:00,52.5,51.4,30.35,North,-999,0.0,0.7,96,0.00,,,0.00,pywws,2013-06-04 22:15:00,
2013-06-04 23:20:00,52.3,51.2,30.34,North,-999,0.0,0.7,96,0.00,,,0.00,pywws,2013-06-04 22:20:00,
2013-06-04 23:25:00,52.0,50.6,30.34,North,-999,0.0,0.0,95,0.00,,,0.00,pywws,2013-06-04 22:25:00,
2013-06-04 23:30:00,51.4,50.3,30.34,North,-999,0.0,0.0,96,0.00,,,0.00,pywws,2013-06-04 22:30:00,
2013-06-04 23:35:00,50.9,49.8,30.34,North,-999,0.0,0.0,96,0.00,,,0.00,pywws,2013-06-04 22:35:00,
2013-06-04 23:40:00,50.7,49.6,30.34,North,-999,0.0,0.0,96,0.00,,,0.00,pywws,2013-06-04 22:40:00,
2013-06-04 23:45:00,50.4,49.5,30.34,North,-999,0.0,0.7,97,0.00,,,0.00,pywws,2013-06-04 22:45:00,
2013-06-04 23:50:00,50.2,49.4,30.35,North,-999,0.0,0.0,97,0.00,,,0.00,pywws,2013-06-04 22:50:00,